createdAt,value
2018-02-25T00:00:02.748Z,63.03
2018-02-25T00:02:31.924Z,62.23
2018-02-25T00:05:01.087Z,63.05
2018-02-25T00:07:30.226Z,62.61
2018-02-25T00:09:59.465Z,63.32
2018-02-25T00:12:28.792Z,63.80
2018-02-25T00:14:57.931Z,64.29
2018-02-25T00:20:03.315Z,64.32
2018-02-25T00:22:32.492Z,63.25
2018-02-25T00:25:01.654Z,64.85
2018-02-25T00:27:30.863Z,63.94
2018-02-25T00:30:09.987Z,63.82
2018-02-25T00:32:39.971Z,63.43
2018-02-25T00:35:09.153Z,63.74
2018-02-25T00:37:38.315Z,63.65
2018-02-25T00:40:07.478Z,63.84
2018-02-25T00:42:36.644Z,63.79
2018-02-25T00:45:05.852Z,63.65
2018-02-25T00:50:10.207Z,64.19
2018-02-25T00:52:39.371Z,64.90
2018-02-25T00:55:08.525Z,63.84
2018-02-25T00:57:37.696Z,64.78
2018-02-25T01:02:42.563Z,64.90
2018-02-25T01:05:11.718Z,64.55
2018-02-25T01:07:40.875Z,65.31
2018-02-25T01:10:10.062Z,63.79
2018-02-25T01:12:39.228Z,65.20
2018-02-25T01:15:08.375Z,65.32
2018-02-25T01:17:37.755Z,65.41
2018-02-25T01:22:43.144Z,64.98
2018-02-25T01:25:12.332Z,65.64
2018-02-25T01:27:41.588Z,65.66
2018-02-25T01:30:10.799Z,65.42
2018-02-25T01:32:39.951Z,65.96
2018-02-25T01:35:09.159Z,65.74
2018-02-25T01:37:38.350Z,65.71
2018-02-25T01:40:07.529Z,66.12
2018-02-25T01:42:36.690Z,65.35
2018-02-25T01:45:05.854Z,66.22
2018-02-25T01:47:35.026Z,65.54
2018-02-25T01:50:04.199Z,65.81
2018-02-25T01:52:33.444Z,66.33
2018-02-25T01:57:37.799Z,66.60
2018-02-25T02:00:06.936Z,66.78
2018-02-25T02:02:36.089Z,67.27
2018-02-25T02:07:40.463Z,67.38
2018-02-25T02:10:10.665Z,66.73
2018-02-25T02:12:39.899Z,67.78
2018-02-25T02:15:09.104Z,67.10
2018-02-25T02:17:38.268Z,66.82
2018-02-25T02:20:07.488Z,67.00
2018-02-25T02:26:26.095Z,67.21
2018-02-25T02:28:55.255Z,66.60
2018-02-25T02:31:24.421Z,67.72
2018-02-25T02:33:53.608Z,67.52
2018-02-25T02:36:22.825Z,67.75
2018-02-25T02:38:51.964Z,67.83
2018-02-25T02:41:21.179Z,67.50
2018-02-25T02:43:50.372Z,67.68
2018-02-25T02:46:19.548Z,67.20
2018-02-25T02:48:48.692Z,67.17
2018-02-25T02:51:17.912Z,67.69
2018-02-25T02:56:23.341Z,67.92
2018-02-25T02:58:52.512Z,68.08
2018-02-25T03:01:21.667Z,68.12
2018-02-25T03:03:50.874Z,68.08
2018-02-25T03:06:20.069Z,69.22
2018-02-25T03:08:49.228Z,68.44
2018-02-25T03:11:18.396Z,68.86
2018-02-25T03:13:47.584Z,68.79
2018-02-25T03:18:51.939Z,68.11
2018-02-25T03:21:21.136Z,68.60
2018-02-25T03:23:50.298Z,69.00
2018-02-25T03:26:19.451Z,69.04
2018-02-25T03:28:54.048Z,68.28
2018-02-25T03:31:23.227Z,68.24
2018-02-25T03:33:52.417Z,69.32
2018-02-25T03:36:21.595Z,68.57
2018-02-25T03:38:50.730Z,68.92
2018-02-25T03:41:19.908Z,68.39
2018-02-25T03:43:50.046Z,68.79
2018-02-25T03:46:19.209Z,69.14
2018-02-25T03:48:49.320Z,69.45
2018-02-25T03:51:22.091Z,69.65
2018-02-25T03:56:26.479Z,70.03
2018-02-25T03:58:59.193Z,70.72
2018-02-25T04:01:32.055Z,70.28
2018-02-25T04:04:01.319Z,71.29
2018-02-25T04:06:30.493Z,71.29
2018-02-25T04:09:00.615Z,71.40
2018-02-25T04:11:29.783Z,71.73
2018-02-25T04:13:58.935Z,70.81
2018-02-25T04:16:28.125Z,71.25
2018-02-25T04:18:57.265Z,71.27
2018-02-25T04:21:26.431Z,70.10
2018-02-25T04:23:55.684Z,70.42
2018-02-25T04:26:24.847Z,70.16
2018-02-25T04:28:54.004Z,71.25
2018-02-25T04:31:29.587Z,71.25
2018-02-25T04:33:58.792Z,70.97
2018-02-25T04:36:27.963Z,71.91
2018-02-25T04:38:57.135Z,71.22
2018-02-25T04:41:26.285Z,71.22
2018-02-25T04:43:55.543Z,71.31
2018-02-25T04:46:24.699Z,71.55
2018-02-25T04:51:28.929Z,71.03
2018-02-25T04:53:58.199Z,70.58
2018-02-25T04:56:27.375Z,72.18
2018-02-25T04:58:56.544Z,71.80
2018-02-25T05:01:25.712Z,72.23
2018-02-25T05:03:54.872Z,71.67
2018-02-25T05:06:24.040Z,72.84
2018-02-25T05:08:53.246Z,72.76
2018-02-25T05:11:22.431Z,72.06
2018-02-25T05:13:58.065Z,72.26
2018-02-25T05:16:27.288Z,72.67
2018-02-25T05:18:56.451Z,72.86
2018-02-25T05:21:25.607Z,72.40
2018-02-25T05:23:54.823Z,72.46
2018-02-25T05:26:23.991Z,72.90
2018-02-25T05:28:53.156Z,72.60
2018-02-25T05:31:22.415Z,73.30
2018-02-25T05:36:26.927Z,73.94
2018-02-25T05:38:56.249Z,73.65
2018-02-25T05:41:25.408Z,72.34
2018-02-25T05:43:54.563Z,73.35
2018-02-25T05:46:23.777Z,73.69
2018-02-25T05:48:52.962Z,73.51
2018-02-25T05:51:22.702Z,72.22
2018-02-25T05:53:51.956Z,72.98
2018-02-25T05:56:21.158Z,72.87
2018-02-25T05:58:50.316Z,72.65
2018-02-25T06:01:19.471Z,72.54
2018-02-25T06:03:48.635Z,71.39
2018-02-25T06:06:19.569Z,72.37
2018-02-25T06:08:48.753Z,72.15
2018-02-25T06:11:18.860Z,72.07
2018-02-25T06:13:48.020Z,71.37
2018-02-25T06:16:28.458Z,70.85
2018-02-25T06:18:57.635Z,70.89
2018-02-25T06:21:26.831Z,71.25
2018-02-25T06:23:56.033Z,70.56
2018-02-25T06:26:25.203Z,71.29
2018-02-25T06:28:54.375Z,70.99
2018-02-25T06:31:23.555Z,69.76
2018-02-25T06:33:52.721Z,69.79
2018-02-25T06:36:21.891Z,69.08
2018-02-25T06:38:51.032Z,68.79
2018-02-25T06:41:20.303Z,69.45
2018-02-25T06:43:49.712Z,69.20
2018-02-25T06:46:18.872Z,69.58
2018-02-25T06:48:48.043Z,68.66
2018-02-25T06:53:52.924Z,69.68
2018-02-25T06:56:22.091Z,68.91
2018-02-25T06:58:55.940Z,68.05
2018-02-25T07:01:25.199Z,67.59
2018-02-25T07:03:54.485Z,67.04
2018-02-25T07:06:23.667Z,66.47
2018-02-25T07:08:52.836Z,66.19
2018-02-25T07:11:22.047Z,66.44
2018-02-25T07:13:51.302Z,66.01
2018-02-25T07:16:20.469Z,66.31
2018-02-25T07:18:49.624Z,66.04
2018-02-25T07:21:18.842Z,66.39
2018-02-25T07:23:48.032Z,64.81
2018-02-25T07:28:52.396Z,64.35
2018-02-25T07:31:21.563Z,63.98
2018-02-25T07:33:50.767Z,64.13
2018-02-25T07:36:19.897Z,63.16
2018-02-25T07:38:49.082Z,62.31
2018-02-25T07:41:18.244Z,62.85
2018-02-25T07:43:47.410Z,62.23
2018-02-25T07:46:16.785Z,61.29
2018-02-25T07:48:46.474Z,61.96
2018-02-25T07:51:15.627Z,62.49
2018-02-25T07:53:44.787Z,63.16
2018-02-25T07:56:13.984Z,63.12
2018-02-25T07:58:43.140Z,62.36
2018-02-25T08:01:12.331Z,61.36
2018-02-25T08:03:41.503Z,60.77
2018-02-25T08:06:10.660Z,61.04
2018-02-25T08:08:39.875Z,60.22
2018-02-25T08:11:09.054Z,60.32
2018-02-25T08:13:38.291Z,59.27
2018-02-25T08:16:07.453Z,59.70
2018-02-25T08:18:36.613Z,59.06
2018-02-25T08:23:45.803Z,58.73
2018-02-25T08:26:17.102Z,58.69
2018-02-25T08:31:21.482Z,58.46
2018-02-25T08:33:50.725Z,58.91
2018-02-25T08:36:23.742Z,58.32
2018-02-25T08:38:53.647Z,59.47
2018-02-25T08:41:22.872Z,59.31
2018-02-25T08:46:27.571Z,58.59
2018-02-25T08:48:56.784Z,57.40
2018-02-25T08:51:25.938Z,57.05
2018-02-25T08:53:55.130Z,55.81
2018-02-25T08:56:24.295Z,55.95
2018-02-25T08:58:53.451Z,54.32
2018-02-25T09:01:22.596Z,53.35
2018-02-25T09:04:01.164Z,54.02
2018-02-25T09:06:30.302Z,53.27
2018-02-25T09:09:03.124Z,52.25
2018-02-25T09:11:38.608Z,50.49
2018-02-25T09:14:12.456Z,47.99
2018-02-25T09:16:41.751Z,43.69
2018-02-25T09:19:10.919Z,39.32
2018-02-25T09:21:40.142Z,38.09
2018-02-25T09:24:09.313Z,38.70
2018-02-25T09:26:38.490Z,34.17
2018-02-25T09:29:08.609Z,40.33
2018-02-25T09:31:37.850Z,34.47
2018-02-25T09:34:07.020Z,33.98
2018-02-25T09:36:36.333Z,34.50
2018-02-25T09:41:40.666Z,34.25
2018-02-25T09:46:51.012Z,31.21
2018-02-25T09:49:20.151Z,31.68
2018-02-25T09:51:49.339Z,30.06
2018-02-25T09:56:53.707Z,31.05
2018-02-25T09:59:23.329Z,28.47
2018-02-25T10:01:52.484Z,26.15
2018-02-25T10:04:21.631Z,21.88
2018-02-25T10:06:51.032Z,26.49
2018-02-25T10:11:55.465Z,27.10
2018-02-25T10:14:24.658Z,25.22
2018-02-25T10:16:53.799Z,21.66
2018-02-25T10:19:22.956Z,24.83
2018-02-25T10:21:52.102Z,24.24
2018-02-25T10:24:21.260Z,22.27
2018-02-25T10:26:50.400Z,25.41
2018-02-25T10:29:19.568Z,24.75
2018-02-25T10:31:48.755Z,20.75
2018-02-25T10:34:17.964Z,22.30
2018-02-25T10:36:47.104Z,24.31
2018-02-25T10:39:16.254Z,23.84
2018-02-25T10:41:45.377Z,23.45
2018-02-25T10:44:14.528Z,22.37
2018-02-25T10:46:43.699Z,22.45
2018-02-25T10:49:12.869Z,21.51
2018-02-25T10:51:42.030Z,19.70
2018-02-25T10:54:14.314Z,22.19
2018-02-25T10:56:43.815Z,21.58
2018-02-25T10:59:12.961Z,20.82
2018-02-25T11:01:42.107Z,22.68
2018-02-25T11:04:11.302Z,21.11
2018-02-25T11:06:40.459Z,19.03
2018-02-25T11:09:09.615Z,19.37
2018-02-25T11:11:38.764Z,18.73
2018-02-25T11:16:43.227Z,20.42
2018-02-25T11:19:12.468Z,18.91
2018-02-25T11:21:41.637Z,16.52
2018-02-25T11:26:46.260Z,20.76
2018-02-25T11:31:50.603Z,17.41
2018-02-25T11:34:19.787Z,19.98
2018-02-25T11:36:48.944Z,18.19
2018-02-25T11:39:18.070Z,18.93
2018-02-25T11:46:57.836Z,16.65
2018-02-25T11:49:26.980Z,19.27
2018-02-25T11:54:35.701Z,18.34
2018-02-25T11:57:04.859Z,16.11
2018-02-25T11:59:34.004Z,18.55
2018-02-25T12:02:03.139Z,18.24
2018-02-25T12:04:32.312Z,18.24
2018-02-25T12:07:01.586Z,18.45
2018-02-25T12:09:30.787Z,18.29
2018-02-25T12:11:59.914Z,18.12
2018-02-25T12:14:29.119Z,17.55
2018-02-25T12:16:58.274Z,16.36
2018-02-25T12:19:27.415Z,17.77
2018-02-25T12:21:56.556Z,16.82
2018-02-25T12:24:25.795Z,15.22
2018-02-25T12:26:54.945Z,17.65
2018-02-25T12:29:24.080Z,18.07
2018-02-25T12:31:53.238Z,18.19
2018-02-25T12:34:32.727Z,15.94
2018-02-25T12:37:01.874Z,17.18
2018-02-25T12:39:31.037Z,17.03
2018-02-25T12:42:00.192Z,16.73
2018-02-25T12:47:04.650Z,17.06
2018-02-25T12:49:33.794Z,17.40
2018-02-25T12:52:02.943Z,17.27
2018-02-25T12:57:07.369Z,16.24
2018-02-25T12:59:36.524Z,17.53
2018-02-25T13:02:05.651Z,15.91
2018-02-25T13:04:34.852Z,16.39
2018-02-25T13:07:04.010Z,16.34
2018-02-25T13:09:33.179Z,16.85
2018-02-25T13:12:02.309Z,17.03
2018-02-25T13:14:42.565Z,16.46
2018-02-25T13:17:12.632Z,16.84
2018-02-25T13:22:17.150Z,16.25
2018-02-25T13:24:47.317Z,17.25
2018-02-25T13:27:16.682Z,16.72
2018-02-25T13:29:45.810Z,17.41
2018-02-25T13:32:14.989Z,17.20
2018-02-25T13:34:44.211Z,15.65
2018-02-25T13:37:21.846Z,16.12
2018-02-25T13:39:51.081Z,16.35
2018-02-25T13:42:20.229Z,15.95
2018-02-25T13:44:49.411Z,16.40
2018-02-25T13:49:53.767Z,16.16
2018-02-25T13:52:22.942Z,16.77
2018-02-25T13:54:52.091Z,16.74
2018-02-25T13:59:56.520Z,16.44
2018-02-25T14:02:25.770Z,16.73
2018-02-25T14:04:54.950Z,16.47
2018-02-25T14:07:24.124Z,16.70
2018-02-25T14:09:53.359Z,16.30
2018-02-25T14:12:22.557Z,16.25
2018-02-25T14:14:51.818Z,15.89
2018-02-25T14:17:20.983Z,16.29
2018-02-25T14:19:50.185Z,16.26
2018-02-25T14:22:19.339Z,18.11
2018-02-25T14:24:48.544Z,16.88
2018-02-25T14:27:17.692Z,16.67
2018-02-25T14:29:46.822Z,17.40
2018-02-25T14:32:15.976Z,17.13
2018-02-25T14:34:45.127Z,16.77
2018-02-25T14:37:14.313Z,16.82
2018-02-25T14:39:43.438Z,17.03
2018-02-25T14:42:12.604Z,17.47
2018-02-25T14:44:41.752Z,17.01
2018-02-25T14:47:11.054Z,17.33
2018-02-25T14:49:40.216Z,17.67
2018-02-25T14:52:09.376Z,17.15
2018-02-25T14:57:18.326Z,17.28
2018-02-25T14:59:51.842Z,18.55
2018-02-25T15:02:25.773Z,18.76
2018-02-25T15:05:00.593Z,18.02
2018-02-25T15:07:34.515Z,19.04
2018-02-25T15:10:07.800Z,19.23
2018-02-25T15:12:42.320Z,20.36
2018-02-25T15:15:16.705Z,19.69
2018-02-25T15:17:50.433Z,20.48
2018-02-25T15:20:24.650Z,20.21
2018-02-25T15:22:59.427Z,20.98
2018-02-25T15:25:34.952Z,20.70
2018-02-25T15:30:45.254Z,20.26
2018-02-25T15:35:54.019Z,22.40
2018-02-25T15:38:27.051Z,23.81
2018-02-25T15:41:00.712Z,25.02
2018-02-25T15:43:33.918Z,26.75
2018-02-25T15:46:09.123Z,28.27
2018-02-25T15:48:43.248Z,31.02
2018-02-25T15:51:17.541Z,30.44
2018-02-25T15:53:51.661Z,32.71
2018-02-25T15:56:26.176Z,31.96
2018-02-25T15:59:00.327Z,33.55
2018-02-25T16:01:36.797Z,32.09
2018-02-25T16:06:50.293Z,32.42
2018-02-25T16:09:24.738Z,35.51
2018-02-25T16:11:57.891Z,34.27
2018-02-25T16:19:45.552Z,37.34
2018-02-25T16:22:20.538Z,37.10
2018-02-25T16:24:54.781Z,37.47
2018-02-25T16:27:34.597Z,38.80
2018-02-25T16:30:08.453Z,40.25
2018-02-25T16:32:41.678Z,39.92
2018-02-25T16:35:16.464Z,42.09
2018-02-25T16:37:50.160Z,40.29
2018-02-25T16:40:23.831Z,41.28
2018-02-25T16:42:58.624Z,41.59
2018-02-25T16:45:33.644Z,42.97
2018-02-25T16:48:06.340Z,43.34
2018-02-25T16:50:40.233Z,43.18
2018-02-25T16:53:14.520Z,44.82
2018-02-25T16:55:48.746Z,44.12
2018-02-25T16:58:23.196Z,45.98
2018-02-25T17:00:57.403Z,46.25
2018-02-25T17:03:27.614Z,47.78
2018-02-25T17:05:56.846Z,47.98
2018-02-25T17:08:26.045Z,47.95
2018-02-25T17:10:55.236Z,50.37
2018-02-25T17:13:24.378Z,49.87
2018-02-25T17:15:53.539Z,48.35
2018-02-25T17:18:22.676Z,47.50
2018-02-25T17:20:51.896Z,50.42
2018-02-25T17:23:21.079Z,48.96
2018-02-25T17:25:50.264Z,50.76
2018-02-25T17:28:19.459Z,50.55
2018-02-25T17:30:48.620Z,49.65
2018-02-25T17:33:17.928Z,47.20
2018-02-25T17:35:47.123Z,48.86
2018-02-25T17:38:16.346Z,47.49
2018-02-25T17:40:45.488Z,50.58
2018-02-25T17:43:14.651Z,50.21
2018-02-25T17:45:43.847Z,50.42
2018-02-25T17:48:13.999Z,53.06
2018-02-25T17:50:43.192Z,50.63
2018-02-25T17:53:12.355Z,51.26
2018-02-25T17:55:41.569Z,50.32
2018-02-25T17:58:10.702Z,51.03
2018-02-25T18:00:39.860Z,52.03
2018-02-25T18:03:09.020Z,51.86
2018-02-25T18:05:38.186Z,47.51
2018-02-25T18:08:07.464Z,52.65
2018-02-25T18:10:36.643Z,50.28
2018-02-25T18:15:41.553Z,47.53
2018-02-25T18:18:10.748Z,49.90
2018-02-25T18:20:39.931Z,50.49
2018-02-25T18:23:09.103Z,51.01
2018-02-25T18:28:13.505Z,50.09
2018-02-25T18:30:42.661Z,50.68
2018-02-25T18:33:11.859Z,51.29
2018-02-25T18:35:41.067Z,50.23
2018-02-25T18:38:10.244Z,51.04
2018-02-25T18:40:39.426Z,51.18
2018-02-25T18:43:08.676Z,52.10
2018-02-25T18:45:37.858Z,52.83
2018-02-25T18:48:07.054Z,52.97
2018-02-25T18:53:12.142Z,53.33
2018-02-25T18:55:41.340Z,52.20
2018-02-25T18:58:10.525Z,49.55
2018-02-25T19:03:15.894Z,48.68
2018-02-25T19:05:45.113Z,53.68
2018-02-25T19:08:14.280Z,53.46
2018-02-25T19:10:43.472Z,53.86
2018-02-25T19:13:12.648Z,50.20
2018-02-25T19:15:42.060Z,52.92
2018-02-25T19:18:11.216Z,50.61
2018-02-25T19:20:40.436Z,52.62
2018-02-25T19:23:10.074Z,54.48
2018-02-25T19:25:39.290Z,54.03
2018-02-25T19:28:08.816Z,56.06
2018-02-25T19:33:14.211Z,51.58
2018-02-25T19:35:49.030Z,51.56
2018-02-25T19:38:24.100Z,54.49
2018-02-25T19:40:58.610Z,50.93
2018-02-25T19:43:27.846Z,52.21
2018-02-25T19:45:57.165Z,53.58
2018-02-25T19:48:26.461Z,54.57
2018-02-25T19:50:55.801Z,56.68
2018-02-25T19:56:01.806Z,55.17
2018-02-25T19:58:31.562Z,57.25
2018-02-25T20:01:00.770Z,58.33
2018-02-25T20:03:29.986Z,58.05
2018-02-25T20:05:59.178Z,54.26
2018-02-25T20:08:28.367Z,52.91
2018-02-25T20:10:57.578Z,56.66
2018-02-25T20:13:26.802Z,53.33
2018-02-25T20:15:55.996Z,58.93
2018-02-25T20:18:25.222Z,57.56
2018-02-25T20:20:54.440Z,55.66
2018-02-25T20:23:23.648Z,60.40
2018-02-25T20:25:52.885Z,59.93
2018-02-25T20:28:22.485Z,56.93
2018-02-25T20:30:51.781Z,54.51
2018-02-25T20:33:21.464Z,59.72
2018-02-25T20:35:51.000Z,57.55
2018-02-25T20:38:21.551Z,59.87
2018-02-25T20:40:52.103Z,59.82
2018-02-25T20:43:22.155Z,62.55
2018-02-25T20:45:53.272Z,62.46
2018-02-25T20:48:22.717Z,61.33
2018-02-25T20:50:52.208Z,59.85
2018-02-25T20:53:22.395Z,60.59
2018-02-25T20:55:52.378Z,59.62
2018-02-25T20:58:22.935Z,60.89
2018-02-25T21:00:53.504Z,59.51
2018-02-25T21:03:22.690Z,63.56
2018-02-25T21:05:51.964Z,60.42
2018-02-25T21:08:21.747Z,61.73
2018-02-25T21:10:52.743Z,60.53
2018-02-25T21:13:22.250Z,63.00
2018-02-25T21:15:51.544Z,65.43
2018-02-25T21:18:21.182Z,65.49
2018-02-25T21:21:00.073Z,68.95
2018-02-25T21:23:29.757Z,66.01
2018-02-25T21:25:59.084Z,68.57
2018-02-25T21:28:28.441Z,66.58
2018-02-25T21:30:57.904Z,63.65
2018-02-25T21:33:27.622Z,60.17
2018-02-25T21:35:57.086Z,60.05
2018-02-25T21:41:01.968Z,63.66
2018-02-25T21:43:32.043Z,65.39
2018-02-25T21:46:01.205Z,61.81
2018-02-25T21:48:30.458Z,62.62
2018-02-25T21:50:59.629Z,64.79
2018-02-25T21:53:34.767Z,62.42
2018-02-25T21:56:09.457Z,64.18
2018-02-25T21:58:44.301Z,62.59
2018-02-25T22:01:19.952Z,63.09
2018-02-25T22:04:05.344Z,64.13
2018-02-25T22:06:35.772Z,66.21
2018-02-25T22:09:06.406Z,66.78
2018-02-25T22:11:35.695Z,63.02
2018-02-25T22:14:05.431Z,64.32
2018-02-25T22:16:35.838Z,66.89
2018-02-25T22:19:05.111Z,65.07
2018-02-25T22:21:34.463Z,67.48
2018-02-25T22:24:05.512Z,67.23
2018-02-25T22:29:11.177Z,64.57
2018-02-25T22:31:40.573Z,64.92
2018-02-25T22:34:09.715Z,63.24
2018-02-25T22:36:38.924Z,66.52
2018-02-25T22:41:44.118Z,66.05
2018-02-25T22:44:13.437Z,66.59
2018-02-25T22:46:43.275Z,65.15
2018-02-25T22:49:12.429Z,65.47
2018-02-25T22:51:41.723Z,62.56
2018-02-25T22:54:11.011Z,64.85
2018-02-25T22:59:15.374Z,63.53
2018-02-25T23:01:44.551Z,63.96
2018-02-25T23:04:14.625Z,62.71
2018-02-25T23:06:47.054Z,62.83
2018-02-25T23:09:16.348Z,63.01
2018-02-25T23:11:45.500Z,65.52
2018-02-25T23:14:14.681Z,64.08
2018-02-25T23:16:43.885Z,63.28
2018-02-25T23:19:13.068Z,65.31
2018-02-25T23:21:42.313Z,64.57
2018-02-25T23:24:11.536Z,63.53
2018-02-25T23:26:40.928Z,62.42
2018-02-25T23:29:10.248Z,64.21
2018-02-25T23:31:39.702Z,64.03
2018-02-25T23:34:08.858Z,62.44
2018-02-25T23:36:38.590Z,63.65
2018-02-25T23:39:08.091Z,60.75
2018-02-25T23:41:37.255Z,60.35
2018-02-25T23:44:07.517Z,61.50
2018-02-25T23:49:12.258Z,63.16
2018-02-25T23:51:41.650Z,62.54
2018-02-25T23:54:11.065Z,63.99
2018-02-25T23:56:40.559Z,62.61
2018-02-25T23:59:09.728Z,62.42
